Time;durP1;ratioP1;P1;durP2;ratioP2;P2;SDS_P1;SDS_P2;PMS_P1;PMS_P2;Temp;Humidity;BMP_temperature;BMP_pressure;BME280_temperature;BME280_humidity;BME280_pressure;Samples;Min_cycle;Max_cycle;Signal;HPM_P1;HPM_P2
2023/05/16 00:00:24;;;;;;;9.83;6.47;;;12.50;99.90;;;;;;4171079;28;20715;-78
2023/05/16 00:02:26;;;;;;;9.93;6.30;;;12.40;99.90;;;;;;4167193;28;20294;-78
2023/05/16 00:04:28;;;;;;;7.60;5.93;;;12.40;99.90;;;;;;4166466;28;20225;-78
2023/05/16 00:06:30;;;;;;;10.83;6.57;;;12.40;99.90;;;;;;4170188;28;20240;-78
2023/05/16 00:08:34;;;;;;;7.53;5.80;;;12.40;99.90;;;;;;4170654;28;20207;-78
2023/05/16 00:10:36;;;;;;;9.23;6.70;;;12.30;99.90;;;;;;4174019;28;20297;-78
2023/05/16 00:12:39;;;;;;;11.37;6.20;;;12.30;99.90;;;;;;4173139;28;20283;-78
2023/05/16 00:14:41;;;;;;;9.00;6.90;;;12.30;99.90;;;;;;4170414;28;20219;-78
2023/05/16 00:16:43;;;;;;;12.13;6.80;;;12.30;99.90;;;;;;4179109;28;20276;-79
2023/05/16 00:18:46;;;;;;;9.00;6.90;;;12.30;99.90;;;;;;4167232;28;20211;-78
2023/05/16 00:20:48;;;;;;;11.20;7.30;;;12.20;99.90;;;;;;4167610;28;20210;-78
2023/05/16 00:22:50;;;;;;;7.73;6.20;;;12.20;99.90;;;;;;4174446;28;20230;-78
2023/05/16 00:24:53;;;;;;;9.93;7.47;;;12.20;99.90;;;;;;4169787;28;20241;-79
2023/05/16 00:26:55;;;;;;;8.50;7.00;;;12.20;99.90;;;;;;4169585;28;20234;-78
2023/05/16 00:28:59;;;;;;;8.73;6.70;;;12.10;99.90;;;;;;4175109;28;20209;-78
2023/05/16 00:31:01;;;;;;;11.47;7.10;;;12.10;99.90;;;;;;4175992;28;20321;-78
2023/05/16 00:33:05;;;;;;;9.57;6.53;;;12.10;99.90;;;;;;4167280;28;20312;-78
2023/05/16 00:35:09;;;;;;;8.67;6.67;;;12.10;99.90;;;;;;4175704;28;20271;-79
2023/05/16 00:37:13;;;;;;;9.40;6.50;;;12.10;99.90;;;;;;4170585;28;20317;-78
2023/05/16 00:39:15;;;;;;;9.60;6.87;;;12.00;99.90;;;;;;4164083;28;20250;-78
2023/05/16 00:41:18;;;;;;;8.87;6.33;;;12.00;99.90;;;;;;4176322;28;20325;-79
2023/05/16 00:43:20;;;;;;;9.97;6.97;;;12.00;99.90;;;;;;4172652;28;20250;-79
2023/05/16 00:45:22;;;;;;;9.63;7.13;;;12.00;99.90;;;;;;4169653;28;20199;-79
2023/05/16 00:47:24;;;;;;;8.83;6.37;;;12.00;99.90;;;;;;4168046;28;20333;-78
2023/05/16 00:49:26;;;;;;;9.97;6.70;;;12.00;99.90;;;;;;4168620;28;20223;-79
2023/05/16 00:51:29;;;;;;;8.87;6.70;;;11.90;99.90;;;;;;4170279;28;20248;-80
2023/05/16 00:53:31;;;;;;;9.87;7.00;;;11.90;99.90;;;;;;4170128;28;20387;-79
2023/05/16 00:55:33;;;;;;;11.77;6.80;;;11.90;99.90;;;;;;4168533;28;20272;-78
2023/05/16 00:57:37;;;;;;;8.57;6.37;;;11.80;99.90;;;;;;4170897;28;20789;-79
2023/05/16 00:59:39;;;;;;;10.43;7.07;;;11.80;99.90;;;;;;4171767;28;20310;-78
2023/05/16 01:01:41;;;;;;;8.23;6.47;;;11.80;99.90;;;;;;4168077;28;20247;-79
2023/05/16 01:03:46;;;;;;;10.30;6.63;;;11.70;99.90;;;;;;4169180;28;20314;-79
2023/05/16 01:05:48;;;;;;;9.57;6.83;;;11.70;99.90;;;;;;4172154;28;20318;-78
2023/05/16 01:07:50;;;;;;;12.20;7.83;;;11.70;99.90;;;;;;4167595;28;20285;-79
2023/05/16 01:09:52;;;;;;;10.47;7.27;;;11.70;99.90;;;;;;4165804;28;20967;-78
2023/05/16 01:12:02;;;;;;;10.00;7.20;;;11.60;99.90;;;;;;4168176;28;20457;-79
2023/05/16 01:14:19;;;;;;;11.47;7.37;;;11.60;99.90;;;;;;4169259;28;20216;-78
2023/05/16 01:16:26;;;;;;;10.43;7.60;;;11.60;99.90;;;;;;4170739;28;20420;-78
2023/05/16 01:18:35;;;;;;;9.37;7.27;;;11.60;99.90;;;;;;4173920;28;20690;-78
2023/05/16 01:20:49;;;;;;;10.57;7.70;;;11.50;99.90;;;;;;4170216;28;20244;-79
2023/05/16 01:23:08;;;;;;;12.17;8.20;;;11.50;99.90;;;;;;4172741;28;20433;-78
2023/05/16 01:25:25;;;;;;;10.87;7.47;;;11.50;99.90;;;;;;4174825;28;20206;-78
2023/05/16 01:27:30;;;;;;;10.67;7.60;;;11.40;99.90;;;;;;4167907;28;20243;-80
2023/05/16 01:29:33;;;;;;;12.00;8.30;;;11.40;99.90;;;;;;4173092;28;20222;-78
2023/05/16 01:31:35;;;;;;;10.17;7.63;;;11.40;99.90;;;;;;4174705;28;20244;-78
2023/05/16 01:33:37;;;;;;;11.23;7.37;;;11.40;99.90;;;;;;4173389;28;21150;-78
2023/05/16 01:35:47;;;;;;;11.07;8.27;;;11.30;99.90;;;;;;4172247;28;20224;-79
2023/05/16 01:37:56;;;;;;;12.03;7.60;;;11.30;99.90;;;;;;4172810;28;20237;-79
2023/05/16 01:40:06;;;;;;;11.37;7.97;;;11.30;99.90;;;;;;4172518;28;20276;-79
2023/05/16 01:42:13;;;;;;;10.90;7.53;;;11.20;99.90;;;;;;4171711;28;20272;-79
2023/05/16 01:44:22;;;;;;;12.43;8.47;;;11.20;99.90;;;;;;4176650;28;20210;-78
2023/05/16 01:46:28;;;;;;;12.13;8.00;;;10.90;99.90;;;;;;4178685;28;20614;-79
2023/05/16 01:48:36;;;;;;;13.90;7.67;;;11.20;99.90;;;;;;4170623;28;20233;-78
2023/05/16 01:50:42;;;;;;;13.23;7.93;;;11.20;99.90;;;;;;4173418;28;20232;-78
2023/05/16 01:52:52;;;;;;;14.40;8.37;;;11.20;99.90;;;;;;4182420;28;20221;-79
2023/05/16 01:54:59;;;;;;;15.87;7.83;;;11.20;99.90;;;;;;4190342;28;20662;-80
2023/05/16 01:57:07;;;;;;;15.23;8.57;;;11.10;99.90;;;;;;4188907;28;20217;-80
2023/05/16 01:59:10;;;;;;;15.43;8.50;;;11.10;99.90;;;;;;4177863;28;20246;-79
2023/05/16 02:01:14;;;;;;;12.77;8.00;;;11.10;99.90;;;;;;4177963;28;20578;-79
2023/05/16 02:03:16;;;;;;;15.00;7.87;;;11.00;99.90;;;;;;4174071;28;20233;-79
2023/05/16 02:05:20;;;;;;;14.50;8.20;;;11.00;99.90;;;;;;4171716;28;20244;-80
2023/05/16 02:07:32;;;;;;;10.97;7.70;;;11.10;99.90;;;;;;4168890;28;20329;-79
2023/05/16 02:09:35;;;;;;;13.20;8.20;;;11.00;99.90;;;;;;4168006;28;20220;-79
2023/05/16 02:11:37;;;;;;;13.97;8.30;;;10.90;99.90;;;;;;4171347;28;20204;-79
2023/05/16 02:13:39;;;;;;;12.87;8.70;;;10.90;99.90;;;;;;4171872;28;20217;-79
2023/05/16 02:15:41;;;;;;;14.73;9.03;;;10.90;99.90;;;;;;4171579;28;20236;-79
2023/05/16 02:17:44;;;;;;;12.13;8.83;;;10.90;99.90;;;;;;4174544;28;20230;-79
2023/05/16 02:19:46;;;;;;;16.50;10.07;;;10.80;99.90;;;;;;4173843;28;20216;-79
2023/05/16 02:21:48;;;;;;;15.67;10.60;;;10.80;99.90;;;;;;4172979;28;20295;-79
2023/05/16 02:23:50;;;;;;;18.57;10.57;;;10.70;99.90;;;;;;4175684;28;20274;-79
2023/05/16 02:25:54;;;;;;;17.97;11.43;;;10.70;99.90;;;;;;4169489;28;21036;-79
2023/05/16 02:28:00;;;;;;;23.20;12.33;;;10.60;99.90;;;;;;4166879;28;20229;-79
2023/05/16 02:30:03;;;;;;;21.27;12.53;;;10.60;99.90;;;;;;4172210;28;20989;-78
2023/05/16 02:32:06;;;;;;;21.40;12.60;;;10.50;99.90;;;;;;4171507;28;20221;-78
2023/05/16 02:34:10;;;;;;;19.07;12.47;;;10.40;99.90;;;;;;4172018;28;20302;-79
2023/05/16 02:36:12;;;;;;;23.30;14.23;;;10.40;99.90;;;;;;4169212;28;20729;-78
2023/05/16 02:38:16;;;;;;;25.03;15.57;;;10.30;99.90;;;;;;4174461;28;20299;-78
2023/05/16 02:40:18;;;;;;;26.43;15.67;;;10.30;99.90;;;;;;4169134;28;20212;-79
2023/05/16 02:42:20;;;;;;;29.40;16.30;;;10.30;99.90;;;;;;4173601;28;20208;-79
2023/05/16 02:44:22;;;;;;;28.80;16.27;;;10.20;99.90;;;;;;4176288;28;20294;-78
2023/05/16 02:46:26;;;;;;;26.77;16.33;;;10.30;99.90;;;;;;4168531;28;20601;-79
2023/05/16 02:48:28;;;;;;;29.43;17.23;;;10.10;99.90;;;;;;4172433;28;20628;-80
2023/05/16 02:50:31;;;;;;;30.40;18.97;;;10.10;99.90;;;;;;4171881;28;20308;-80
2023/05/16 02:52:33;;;;;;;28.90;17.40;;;10.00;99.90;;;;;;4169615;28;20270;-78
2023/05/16 02:54:35;;;;;;;26.23;17.37;;;10.00;99.90;;;;;;4172360;28;20278;-78
2023/05/16 02:56:37;;;;;;;31.60;18.73;;;9.90;99.90;;;;;;4166822;28;20224;-78
2023/05/16 02:58:39;;;;;;;30.50;18.27;;;9.90;99.90;;;;;;4175915;28;20205;-79
2023/05/16 03:00:41;;;;;;;35.80;19.37;;;9.90;99.90;;;;;;4166762;28;20212;-78
2023/05/16 03:02:43;;;;;;;34.50;19.83;;;9.90;99.90;;;;;;4207245;28;20222;-78
2023/05/16 03:04:45;;;;;;;31.87;19.17;;;9.80;99.90;;;;;;4170979;28;20678;-79
2023/05/16 03:06:49;;;;;;;29.57;18.77;;;9.80;99.90;;;;;;4177898;28;20236;-79
2023/05/16 03:08:52;;;;;;;30.30;18.60;;;9.90;99.90;;;;;;4174371;28;20232;-78
2023/05/16 03:10:54;;;;;;;31.20;19.97;;;9.80;99.90;;;;;;4174224;28;20217;-79
2023/05/16 03:12:56;;;;;;;36.00;21.60;;;9.80;99.90;;;;;;4178168;28;20220;-79
2023/05/16 03:14:58;;;;;;;35.40;20.60;;;9.80;99.90;;;;;;4168991;28;20214;-79
2023/05/16 03:17:00;;;;;;;31.13;19.57;;;9.80;99.90;;;;;;4203441;28;20776;-79
2023/05/16 03:19:02;;;;;;;36.50;21.03;;;9.70;99.90;;;;;;4170599;28;20204;-79
2023/05/16 03:21:04;;;;;;;34.87;21.80;;;9.70;99.90;;;;;;4172040;28;20665;-79
2023/05/16 03:23:07;;;;;;;33.17;21.17;;;9.60;99.90;;;;;;4170539;28;20638;-78
2023/05/16 03:25:10;;;;;;;32.27;20.87;;;9.60;99.90;;;;;;4172802;28;20207;-79
2023/05/16 03:27:12;;;;;;;35.13;21.50;;;9.60;99.90;;;;;;4176066;28;20637;-79
2023/05/16 03:29:14;;;;;;;36.37;21.70;;;9.60;99.90;;;;;;4171079;28;20705;-79
2023/05/16 03:31:16;;;;;;;31.43;19.80;;;9.50;99.90;;;;;;4174169;28;20222;-79
2023/05/16 03:33:18;;;;;;;31.50;19.37;;;9.50;99.90;;;;;;4168480;28;20676;-78
2023/05/16 03:35:20;;;;;;;32.33;20.47;;;9.50;99.90;;;;;;4172906;28;20688;-79
2023/05/16 03:37:22;;;;;;;31.07;20.60;;;9.50;99.90;;;;;;4175702;28;20224;-79
2023/05/16 03:39:25;;;;;;;28.97;18.77;;;9.50;99.90;;;;;;4170834;28;20208;-79
2023/05/16 03:41:28;;;;;;;37.53;21.20;;;9.40;99.90;;;;;;4173148;28;20219;-79
2023/05/16 03:43:30;;;;;;;32.87;20.33;;;9.50;99.90;;;;;;4174801;28;20237;-78
2023/05/16 03:45:32;;;;;;;29.43;18.50;;;9.40;99.90;;;;;;4168057;28;20203;-78
2023/05/16 03:47:34;;;;;;;29.53;18.57;;;9.40;99.90;;;;;;4176232;28;20238;-79
2023/05/16 03:49:36;;;;;;;28.73;18.37;;;9.50;99.90;;;;;;4174717;28;20246;-78
2023/05/16 03:51:38;;;;;;;32.37;19.53;;;9.40;99.90;;;;;;4179421;28;20229;-78
2023/05/16 03:53:40;;;;;;;26.97;17.43;;;9.40;99.90;;;;;;4170978;28;20210;-77
2023/05/16 03:55:43;;;;;;;30.73;19.40;;;9.40;99.90;;;;;;4176133;28;20294;-77
2023/05/16 03:57:46;;;;;;;30.60;19.37;;;9.40;99.90;;;;;;4165755;28;20282;-78
2023/05/16 03:59:48;;;;;;;31.57;18.43;;;9.40;99.90;;;;;;4175143;28;20273;-77
2023/05/16 04:01:50;;;;;;;27.60;17.97;;;9.50;99.90;;;;;;4164830;28;20207;-77
2023/05/16 04:03:52;;;;;;;27.37;18.27;;;9.50;99.90;;;;;;4168880;28;20204;-78
2023/05/16 04:05:55;;;;;;;34.07;20.37;;;9.50;99.90;;;;;;4173746;28;20272;-78
2023/05/16 04:07:57;;;;;;;28.23;17.33;;;9.50;99.90;;;;;;4172948;28;20235;-80
2023/05/16 04:09:59;;;;;;;27.87;17.00;;;9.60;99.90;;;;;;4170387;28;20276;-77
2023/05/16 04:12:03;;;;;;;28.47;17.27;;;9.60;99.90;;;;;;4174527;28;20200;-78
2023/05/16 04:14:04;;;;;;;26.30;16.60;;;9.60;99.90;;;;;;4176497;28;20686;-77
2023/05/16 04:16:07;;;;;;;28.10;17.93;;;9.60;99.90;;;;;;4171735;28;20207;-76
2023/05/16 04:18:09;;;;;;;29.67;18.27;;;9.60;99.90;;;;;;4174096;28;20232;-82
2023/05/16 04:20:12;;;;;;;25.63;16.13;;;9.70;99.90;;;;;;4172445;28;20219;-80
2023/05/16 04:22:14;;;;;;;25.43;15.80;;;9.70;99.90;;;;;;4167250;28;20574;-78
2023/05/16 04:24:16;;;;;;;25.67;16.67;;;9.70;99.90;;;;;;4173227;28;20210;-79
2023/05/16 04:26:20;;;;;;;23.77;15.90;;;9.70;99.90;;;;;;4170330;28;20348;-80
2023/05/16 04:28:24;;;;;;;25.93;16.47;;;9.70;99.90;;;;;;4173063;28;20235;-80
2023/05/16 04:30:26;;;;;;;29.17;17.67;;;9.70;99.90;;;;;;4172352;28;20669;-80
2023/05/16 04:32:29;;;;;;;30.33;17.67;;;9.70;99.90;;;;;;4174882;28;20559;-81
2023/05/16 04:34:32;;;;;;;25.93;16.27;;;9.80;99.90;;;;;;4171761;28;20560;-77
2023/05/16 04:36:34;;;;;;;28.53;15.57;;;9.80;99.90;;;;;;4173439;28;20844;-77
2023/05/16 04:38:36;;;;;;;27.47;17.27;;;9.80;99.90;;;;;;4172116;28;20206;-77
2023/05/16 04:40:40;;;;;;;28.93;18.20;;;9.80;99.90;;;;;;4172819;28;20208;-77
2023/05/16 04:42:42;;;;;;;26.20;16.33;;;9.80;99.90;;;;;;4171978;28;20222;-78
2023/05/16 04:44:46;;;;;;;29.13;17.53;;;9.90;99.90;;;;;;4174905;28;20264;-77
2023/05/16 04:46:48;;;;;;;26.67;17.50;;;9.90;99.90;;;;;;4167330;28;20719;-77
2023/05/16 04:48:52;;;;;;;31.23;18.50;;;9.90;99.90;;;;;;4177322;28;20276;-78
2023/05/16 04:50:54;;;;;;;28.47;16.93;;;9.90;99.90;;;;;;4169666;28;20207;-78
2023/05/16 04:52:56;;;;;;;28.17;17.90;;;9.90;99.90;;;;;;4172809;28;20210;-80
2023/05/16 04:54:59;;;;;;;25.53;16.37;;;9.90;99.90;;;;;;4171501;28;20217;-76
2023/05/16 04:57:01;;;;;;;26.07;16.17;;;10.00;99.90;;;;;;4175218;28;20613;-77
2023/05/16 04:59:03;;;;;;;26.70;16.20;;;10.00;99.90;;;;;;4173250;28;20209;-77
2023/05/16 05:01:06;;;;;;;22.53;15.60;;;9.90;99.90;;;;;;4174389;28;20303;-78
2023/05/16 05:03:08;;;;;;;25.77;15.17;;;9.90;99.90;;;;;;4174266;28;20518;-77
2023/05/16 05:05:10;;;;;;;24.03;14.80;;;10.00;99.90;;;;;;4171211;28;20208;-78
2023/05/16 05:07:13;;;;;;;21.03;13.17;;;9.90;99.90;;;;;;4169395;28;20232;-78
2023/05/16 05:09:15;;;;;;;22.57;13.70;;;9.90;99.90;;;;;;4176371;28;20259;-77
2023/05/16 05:11:18;;;;;;;20.73;13.37;;;10.00;99.90;;;;;;4173550;28;20206;-77
2023/05/16 05:13:20;;;;;;;17.20;11.33;;;10.00;99.90;;;;;;4175593;28;20255;-77
2023/05/16 05:15:22;;;;;;;15.97;10.57;;;10.00;99.90;;;;;;4176178;28;20693;-77
2023/05/16 05:17:25;;;;;;;20.37;11.10;;;10.00;99.90;;;;;;4169696;28;20285;-78
2023/05/16 05:19:27;;;;;;;18.03;10.97;;;10.00;99.90;;;;;;4174560;28;20205;-77
2023/05/16 05:21:29;;;;;;;17.67;10.63;;;10.00;99.90;;;;;;4173742;28;20212;-77
2023/05/16 05:23:31;;;;;;;14.80;9.93;;;10.00;99.90;;;;;;4166591;28;20201;-78
2023/05/16 05:25:35;;;;;;;15.23;9.33;;;10.00;99.90;;;;;;4169703;28;20235;-77
2023/05/16 05:27:37;;;;;;;14.13;9.33;;;10.00;99.90;;;;;;4172049;28;20575;-77
2023/05/16 05:29:41;;;;;;;14.77;9.27;;;10.10;99.90;;;;;;4168815;28;20233;-78
2023/05/16 05:31:43;;;;;;;14.17;7.87;;;10.10;99.90;;;;;;4169599;28;20279;-77
2023/05/16 05:33:47;;;;;;;12.47;8.37;;;10.10;99.90;;;;;;4170146;28;20254;-77
2023/05/16 05:35:49;;;;;;;12.80;8.10;;;10.10;99.90;;;;;;4163717;28;20569;-77
2023/05/16 05:37:52;;;;;;;13.43;8.10;;;10.10;99.90;;;;;;4175399;28;20275;-77
2023/05/16 05:39:54;;;;;;;14.07;8.33;;;10.10;99.90;;;;;;4171332;28;20209;-77
2023/05/16 05:41:57;;;;;;;13.37;6.93;;;10.20;99.90;;;;;;4165064;28;20223;-77
2023/05/16 05:43:59;;;;;;;9.03;6.63;;;10.20;99.90;;;;;;4170040;28;21431;-77
2023/05/16 05:46:01;;;;;;;10.67;6.40;;;10.20;99.90;;;;;;4168272;28;20762;-77
2023/05/16 05:48:03;;;;;;;11.07;7.00;;;10.20;99.90;;;;;;4172944;28;20224;-78
2023/05/16 05:50:10;;;;;;;9.47;6.07;;;10.30;99.90;;;;;;4165355;28;20237;-77
2023/05/16 05:52:12;;;;;;;9.30;5.87;;;10.30;99.90;;;;;;4165308;28;20698;-77
2023/05/16 05:54:14;;;;;;;6.90;5.40;;;10.30;99.90;;;;;;4167001;28;20200;-78
2023/05/16 05:56:16;;;;;;;9.93;5.27;;;10.30;99.90;;;;;;4173717;28;20263;-77
2023/05/16 05:58:18;;;;;;;5.80;4.53;;;10.40;99.90;;;;;;4174671;28;20217;-77
2023/05/16 06:00:22;;;;;;;8.43;5.13;;;10.40;99.90;;;;;;4172304;28;20209;-78
2023/05/16 06:02:24;;;;;;;7.67;4.67;;;10.40;99.90;;;;;;4166749;28;20547;-77
2023/05/16 06:04:26;;;;;;;11.03;4.30;;;10.50;99.90;;;;;;4171127;28;20295;-76
2023/05/16 06:06:30;;;;;;;7.17;4.00;;;10.50;99.90;;;;;;4179155;28;20235;-77
2023/05/16 06:08:32;;;;;;;8.47;4.07;;;10.50;99.90;;;;;;4171500;28;20204;-77
2023/05/16 06:10:34;;;;;;;6.70;3.63;;;10.50;99.90;;;;;;4177573;28;20215;-78
2023/05/16 06:12:35;;;;;;;5.20;3.53;;;10.50;99.90;;;;;;4168408;28;20224;-77
2023/05/16 06:14:37;;;;;;;5.57;3.50;;;10.50;99.90;;;;;;4173631;28;20208;-78
2023/05/16 06:16:40;;;;;;;6.17;3.80;;;10.50;99.90;;;;;;4172868;28;20252;-78
2023/05/16 06:18:42;;;;;;;4.70;3.13;;;10.60;99.90;;;;;;4168489;28;20266;-77
2023/05/16 06:20:44;;;;;;;5.43;3.40;;;10.60;99.90;;;;;;4169668;28;20657;-78
2023/05/16 06:22:47;;;;;;;6.57;3.60;;;10.60;99.90;;;;;;4174545;28;20264;-78
2023/05/16 06:24:49;;;;;;;5.43;3.17;;;10.70;99.90;;;;;;4173639;28;20212;-78
2023/05/16 06:26:51;;;;;;;4.77;3.20;;;10.70;99.90;;;;;;4172943;28;20233;-78
2023/05/16 06:28:53;;;;;;;4.83;3.67;;;10.80;99.90;;;;;;4172340;28;21028;-77
2023/05/16 06:30:55;;;;;;;6.53;3.40;;;10.80;99.90;;;;;;4172167;28;20473;-77
2023/05/16 06:32:57;;;;;;;7.17;3.17;;;10.90;99.90;;;;;;4166293;28;20208;-78
2023/05/16 06:34:59;;;;;;;6.07;3.30;;;10.90;99.90;;;;;;4168270;28;20720;-77
2023/05/16 06:37:02;;;;;;;5.93;3.20;;;10.90;99.90;;;;;;4166235;28;20230;-77
2023/05/16 06:39:06;;;;;;;4.70;3.07;;;11.00;99.90;;;;;;4171846;28;20239;-77
2023/05/16 06:41:08;;;;;;;4.70;2.97;;;11.00;99.90;;;;;;4173291;28;20206;-77
2023/05/16 06:43:10;;;;;;;5.30;2.90;;;11.00;99.90;;;;;;4169522;28;20260;-77
2023/05/16 06:45:12;;;;;;;6.03;3.20;;;11.00;99.90;;;;;;4169836;28;20297;-77
2023/05/16 06:47:14;;;;;;;5.03;3.00;;;11.00;99.90;;;;;;4172129;28;20781;-77
2023/05/16 06:49:16;;;;;;;5.43;3.13;;;11.10;99.90;;;;;;4172121;28;20237;-77
2023/05/16 06:51:18;;;;;;;3.60;2.63;;;11.10;99.90;;;;;;4171604;28;20262;-77
2023/05/16 06:53:20;;;;;;;5.13;2.90;;;11.10;99.90;;;;;;4172228;28;20205;-78
2023/05/16 06:55:23;;;;;;;4.97;2.70;;;11.20;99.90;;;;;;4171501;28;20226;-79
2023/05/16 06:57:25;;;;;;;4.20;3.00;;;11.20;99.90;;;;;;4175354;28;20225;-77
2023/05/16 06:59:27;;;;;;;4.30;2.87;;;11.20;99.90;;;;;;4171674;28;20206;-77
2023/05/16 07:01:29;;;;;;;4.30;3.03;;;11.30;99.90;;;;;;4171411;28;20217;-77
2023/05/16 07:03:31;;;;;;;4.87;2.90;;;11.30;99.90;;;;;;4173513;28;20207;-77
2023/05/16 07:05:33;;;;;;;5.57;3.60;;;11.30;99.90;;;;;;4170587;28;20213;-78
2023/05/16 07:07:35;;;;;;;4.70;3.10;;;11.40;99.90;;;;;;4178930;28;20226;-78
2023/05/16 07:09:37;;;;;;;4.87;3.30;;;11.30;99.90;;;;;;4164823;28;20214;-77
2023/05/16 07:11:41;;;;;;;4.37;3.10;;;11.30;99.90;;;;;;4174258;28;20672;-77
2023/05/16 07:13:43;;;;;;;4.83;3.07;;;11.30;99.90;;;;;;4171751;28;20210;-78
2023/05/16 07:15:45;;;;;;;5.23;2.97;;;11.30;99.90;;;;;;4173302;28;20207;-77
2023/05/16 07:17:47;;;;;;;5.17;3.23;;;11.30;99.90;;;;;;4175381;28;20230;-78
2023/05/16 07:19:49;;;;;;;6.20;3.63;;;11.40;99.90;;;;;;4170684;28;20207;-78
2023/05/16 07:21:52;;;;;;;4.77;2.93;;;11.30;99.90;;;;;;4172705;28;20209;-78
2023/05/16 07:23:54;;;;;;;5.07;2.90;;;11.30;99.90;;;;;;4170869;28;20240;-77
2023/05/16 07:25:56;;;;;;;5.53;3.40;;;11.30;99.90;;;;;;4171209;28;20653;-78
2023/05/16 07:28:00;;;;;;;5.13;2.93;;;11.30;99.90;;;;;;4169285;28;20708;-78
2023/05/16 07:30:02;;;;;;;5.67;3.23;;;11.30;99.90;;;;;;4175651;28;20322;-77
2023/05/16 07:32:04;;;;;;;5.63;3.03;;;11.30;99.90;;;;;;4175016;28;20293;-77
2023/05/16 07:34:06;;;;;;;3.73;2.70;;;11.30;99.90;;;;;;4171888;28;20226;-78
2023/05/16 07:36:09;;;;;;;4.30;2.83;;;11.30;99.90;;;;;;4170071;28;20629;-77
2023/05/16 07:38:11;;;;;;;4.17;3.03;;;11.30;99.90;;;;;;4170366;28;20237;-77
2023/05/16 07:40:14;;;;;;;4.43;2.57;;;11.40;99.90;;;;;;4165081;28;20210;-77
2023/05/16 07:42:16;;;;;;;6.07;2.90;;;11.40;99.90;;;;;;4165788;28;20210;-78
2023/05/16 07:44:22;;;;;;;3.63;2.63;;;11.50;99.90;;;;;;4171041;28;20220;-77
2023/05/16 07:46:24;;;;;;;4.80;3.10;;;11.60;99.90;;;;;;4171620;28;20226;-78
2023/05/16 07:48:26;;;;;;;6.10;3.13;;;11.60;99.90;;;;;;4170180;28;20321;-77
2023/05/16 07:50:28;;;;;;;4.97;3.20;;;11.60;99.90;;;;;;4171341;28;20226;-77
2023/05/16 07:52:30;;;;;;;4.07;3.30;;;11.70;99.90;;;;;;4169723;28;20203;-77
2023/05/16 07:54:35;;;;;;;3.77;2.97;;;11.70;99.90;;;;;;4169086;28;20210;-77
2023/05/16 07:56:37;;;;;;;6.60;3.50;;;11.70;99.90;;;;;;4166934;28;20215;-78
2023/05/16 07:58:39;;;;;;;5.07;3.37;;;11.80;99.90;;;;;;4171341;28;20252;-78
2023/05/16 08:00:43;;;;;;;3.97;2.80;;;11.90;99.90;;;;;;4169881;28;20218;-78
2023/05/16 08:02:45;;;;;;;4.33;2.87;;;12.00;99.90;;;;;;4171866;28;20267;-78
2023/05/16 08:04:47;;;;;;;5.20;2.60;;;12.10;99.90;;;;;;4170663;28;20276;-78
2023/05/16 08:06:49;;;;;;;3.90;2.50;;;12.10;99.90;;;;;;4171081;28;20283;-78
2023/05/16 08:08:51;;;;;;;3.20;2.43;;;12.20;99.90;;;;;;4170513;28;20250;-77
2023/05/16 08:10:53;;;;;;;3.90;2.37;;;12.20;99.90;;;;;;4174209;28;20271;-77
2023/05/16 08:12:55;;;;;;;3.63;2.20;;;12.30;99.90;;;;;;4172000;28;20583;-78
2023/05/16 08:14:57;;;;;;;3.37;1.90;;;12.40;99.90;;;;;;4174761;28;20260;-78
2023/05/16 08:17:01;;;;;;;3.67;2.23;;;12.50;99.90;;;;;;4174042;28;20774;-78
2023/05/16 08:19:03;;;;;;;4.23;2.20;;;12.50;99.90;;;;;;4172509;28;20850;-78
2023/05/16 08:21:05;;;;;;;4.27;2.20;;;12.50;99.90;;;;;;4172015;28;21004;-78
2023/05/16 08:23:09;;;;;;;2.97;2.10;;;12.50;99.90;;;;;;4171409;28;20355;-78
2023/05/16 08:25:11;;;;;;;3.03;2.07;;;12.60;99.90;;;;;;4171559;28;20270;-78
2023/05/16 08:27:13;;;;;;;4.20;2.27;;;12.60;99.90;;;;;;4172179;28;20227;-78
2023/05/16 08:29:15;;;;;;;2.43;1.90;;;12.60;99.90;;;;;;4175668;28;20206;-78
2023/05/16 08:31:17;;;;;;;3.57;2.00;;;12.70;99.90;;;;;;4176582;28;20207;-78
2023/05/16 08:33:21;;;;;;;2.47;1.90;;;12.90;99.90;;;;;;4173650;28;20687;-80
2023/05/16 08:35:23;;;;;;;5.10;2.20;;;13.00;99.90;;;;;;4170397;28;20211;-78
2023/05/16 08:37:25;;;;;;;3.53;1.97;;;13.10;99.90;;;;;;4170393;28;20254;-77
2023/05/16 08:39:29;;;;;;;4.40;2.23;;;13.20;99.90;;;;;;4173146;28;20208;-78
2023/05/16 08:41:31;;;;;;;3.57;1.93;;;13.30;99.90;;;;;;4172446;28;20834;-77
2023/05/16 08:43:35;;;;;;;2.73;1.80;;;13.50;99.90;;;;;;4166308;28;20296;-78
2023/05/16 08:45:37;;;;;;;3.13;1.83;;;13.50;99.90;;;;;;4173512;28;20233;-78
2023/05/16 08:47:42;;;;;;;3.87;2.00;;;13.50;99.90;;;;;;4166350;28;20703;-77
2023/05/16 08:49:51;;;;;;;3.63;1.97;;;13.50;99.90;;;;;;4175591;28;20704;-78
2023/05/16 08:51:58;;;;;;;3.57;2.00;;;13.40;99.90;;;;;;4173385;28;20268;-79
2023/05/16 08:54:04;;;;;;;1.77;1.47;;;13.40;99.90;;;;;;4172269;28;20204;-78
2023/05/16 08:56:07;;;;;;;3.07;1.40;;;13.40;99.90;;;;;;4173525;28;20264;-78
2023/05/16 08:58:10;;;;;;;4.40;1.50;;;13.40;99.90;;;;;;4167285;28;20307;-78
2023/05/16 09:00:13;;;;;;;4.80;1.60;;;13.50;99.90;;;;;;4168786;28;20200;-78
2023/05/16 09:02:16;;;;;;;2.17;1.63;;;13.50;99.90;;;;;;4172357;28;20563;-77
2023/05/16 09:04:18;;;;;;;4.60;1.37;;;13.60;99.90;;;;;;4169590;28;20665;-78
2023/05/16 09:06:21;;;;;;;1.57;1.30;;;13.70;99.90;;;;;;4171765;28;20266;-77
2023/05/16 09:08:24;;;;;;;4.13;1.43;;;13.70;99.90;;;;;;4167193;28;20585;-78
2023/05/16 09:10:26;;;;;;;2.47;1.70;;;13.80;99.90;;;;;;4173269;28;20702;-77
2023/05/16 09:12:28;;;;;;;1.93;1.40;;;13.90;99.90;;;;;;4167783;28;20203;-78
2023/05/16 09:14:30;;;;;;;4.50;1.80;;;13.90;99.90;;;;;;4171565;28;20223;-78
2023/05/16 09:16:32;;;;;;;2.80;1.60;;;13.90;99.90;;;;;;4174198;28;20209;-77
2023/05/16 09:18:35;;;;;;;2.00;1.37;;;13.90;99.90;;;;;;4172177;28;20295;-77
2023/05/16 09:20:45;;;;;;;3.37;1.43;;;13.80;99.90;;;;;;4169690;28;20212;-77
2023/05/16 09:22:53;;;;;;;1.90;1.70;;;13.80;99.90;;;;;;4166716;28;20214;-78
2023/05/16 09:24:55;;;;;;;2.10;1.60;;;13.70;99.90;;;;;;4167220;28;20200;-78
2023/05/16 09:26:57;;;;;;;2.53;1.50;;;13.70;99.90;;;;;;4166261;28;20232;-78
2023/05/16 09:28:59;;;;;;;3.60;1.50;;;13.70;99.90;;;;;;4167648;28;20207;-78
2023/05/16 09:31:01;;;;;;;2.77;1.57;;;13.70;99.90;;;;;;4170022;28;20224;-77
2023/05/16 09:33:03;;;;;;;2.43;1.40;;;13.80;99.90;;;;;;4168898;28;20250;-78
2023/05/16 09:35:06;;;;;;;2.03;1.30;;;13.70;99.90;;;;;;4167367;28;20919;-77
2023/05/16 09:37:10;;;;;;;2.00;1.47;;;13.80;99.90;;;;;;4171279;28;20239;-78
2023/05/16 09:39:15;;;;;;;2.83;1.70;;;13.80;99.90;;;;;;4168409;28;20276;-77
2023/05/16 09:41:17;;;;;;;2.87;1.47;;;13.90;99.90;;;;;;4171531;28;20209;-77
2023/05/16 09:43:23;;;;;;;2.67;1.50;;;13.90;99.90;;;;;;4171903;28;20212;-78
2023/05/16 09:45:25;;;;;;;2.43;1.17;;;13.80;99.90;;;;;;4174123;28;20204;-77
2023/05/16 09:47:28;;;;;;;2.43;1.00;;;13.80;99.90;;;;;;4171362;28;20237;-78
2023/05/16 09:49:30;;;;;;;3.87;1.00;;;13.70;99.90;;;;;;4170663;28;20334;-78
2023/05/16 09:51:33;;;;;;;2.23;1.23;;;13.70;99.90;;;;;;4170544;28;20302;-78
2023/05/16 09:53:35;;;;;;;3.43;1.10;;;13.60;99.90;;;;;;4171029;28;20258;-78
2023/05/16 09:55:38;;;;;;;4.20;1.40;;;13.60;99.90;;;;;;4172617;28;20557;-78
2023/05/16 09:57:40;;;;;;;2.67;1.20;;;13.60;99.90;;;;;;4170523;28;20236;-78
2023/05/16 09:59:42;;;;;;;2.70;1.20;;;13.50;99.90;;;;;;4174074;28;20216;-77
2023/05/16 10:01:45;;;;;;;2.87;1.20;;;13.50;99.90;;;;;;4170473;28;20207;-78
2023/05/16 10:03:47;;;;;;;3.60;1.37;;;13.40;99.90;;;;;;4174041;28;20208;-78
2023/05/16 10:05:51;;;;;;;1.40;0.90;;;13.30;99.90;;;;;;4174028;28;20262;-77
2023/05/16 10:07:56;;;;;;;3.23;1.00;;;13.30;99.90;;;;;;4170447;28;20783;-79
2023/05/16 10:09:58;;;;;;;2.47;1.00;;;13.30;99.90;;;;;;4170970;28;20243;-77
2023/05/16 10:12:05;;;;;;;3.30;1.00;;;13.30;99.90;;;;;;4172066;28;20234;-78
2023/05/16 10:14:10;;;;;;;4.60;1.50;;;13.30;99.90;;;;;;4173716;28;20200;-77
2023/05/16 10:16:14;;;;;;;1.90;0.90;;;13.30;99.90;;;;;;4170530;28;20211;-77
2023/05/16 10:18:18;;;;;;;3.47;1.00;;;13.30;99.90;;;;;;4176139;28;20225;-77
2023/05/16 10:20:21;;;;;;;3.27;1.10;;;13.40;99.90;;;;;;4172604;28;20204;-77
2023/05/16 10:22:24;;;;;;;2.57;1.20;;;13.40;99.90;;;;;;4171676;28;20211;-77
2023/05/16 10:24:37;;;;;;;2.43;1.10;;;13.50;99.90;;;;;;4173630;28;20205;-77
2023/05/16 10:26:39;;;;;;;3.50;1.50;;;13.60;99.90;;;;;;4170291;28;20665;-77
2023/05/16 10:28:42;;;;;;;4.73;1.03;;;13.60;99.90;;;;;;4171604;28;20204;-78
2023/05/16 10:30:45;;;;;;;3.63;1.00;;;13.70;99.90;;;;;;4173269;28;20352;-77
2023/05/16 10:32:50;;;;;;;3.20;1.33;;;13.70;99.90;;;;;;4175290;28;20748;-77
2023/05/16 10:34:54;;;;;;;1.83;1.00;;;13.70;99.90;;;;;;4173455;28;20207;-78